createdAt,value
2018-08-25T00:01:06.457Z,0
2018-08-25T00:02:16.308Z,0
2018-08-25T00:03:25.881Z,0
2018-08-25T00:04:35.724Z,0
2018-08-25T00:05:45.027Z,0
2018-08-25T00:06:54.328Z,0
2018-08-25T00:08:03.897Z,0
2018-08-25T00:09:13.465Z,0
2018-08-25T00:10:22.490Z,0
2018-08-25T00:11:31.836Z,0
2018-08-25T00:12:41.681Z,0
2018-08-25T00:13:51.791Z,0
2018-08-25T00:15:01.097Z,0
2018-08-25T00:16:10.397Z,0
2018-08-25T00:17:20.501Z,0
2018-08-25T00:18:30.604Z,0
2018-08-25T00:19:40.448Z,0
2018-08-25T00:20:50.557Z,0
2018-08-25T00:22:00.124Z,0
2018-08-25T00:23:09.964Z,0
2018-08-25T00:24:19.810Z,0
2018-08-25T00:25:29.650Z,0
2018-08-25T00:26:39.217Z,0
2018-08-25T00:27:48.788Z,0
2018-08-25T00:28:58.363Z,0
2018-08-25T00:30:08.208Z,0
2018-08-25T00:31:17.508Z,0
2018-08-25T00:32:26.537Z,0
2018-08-25T00:33:36.634Z,0
2018-08-25T00:34:46.201Z,0
2018-08-25T00:35:56.037Z,0
2018-08-25T00:37:11.609Z,0
2018-08-25T00:38:20.636Z,0
2018-08-25T00:39:30.496Z,0
2018-08-25T00:40:39.793Z,0
2018-08-25T00:41:49.904Z,0
2018-08-25T00:42:59.743Z,0
2018-08-25T00:44:09.310Z,0
2018-08-25T00:45:19.142Z,0
2018-08-25T00:46:28.718Z,0
2018-08-25T00:47:38.387Z,0
2018-08-25T00:48:48.548Z,0
2018-08-25T00:49:58.121Z,0
2018-08-25T00:51:07.967Z,0
2018-08-25T00:52:17.543Z,0
2018-08-25T00:53:27.390Z,0
2018-08-25T00:54:36.422Z,0
2018-08-25T00:55:46.313Z,0
2018-08-25T00:56:55.889Z,0
2018-08-25T00:58:05.733Z,0
2018-08-25T00:59:15.629Z,0
2018-08-25T01:00:25.282Z,0
2018-08-25T01:01:34.849Z,0
2018-08-25T01:02:44.967Z,0
2018-08-25T01:03:55.080Z,0
2018-08-25T01:05:04.109Z,0
2018-08-25T01:06:13.676Z,0
2018-08-25T01:07:22.706Z,0
2018-08-25T01:08:32.552Z,0
2018-08-25T01:09:42.120Z,0
2018-08-25T01:10:51.688Z,0
2018-08-25T01:12:00.998Z,0
2018-08-25T01:13:10.842Z,0
2018-08-25T01:14:20.946Z,0
2018-08-25T01:15:31.143Z,0
2018-08-25T01:16:41.313Z,0
2018-08-25T01:17:50.875Z,0
2018-08-25T01:19:00.170Z,0
2018-08-25T01:20:09.783Z,0
2018-08-25T01:21:19.627Z,0
2018-08-25T01:22:29.733Z,0
2018-08-25T01:23:39.307Z,0
2018-08-25T01:24:48.924Z,0
2018-08-25T01:25:58.227Z,0
2018-08-25T01:27:07.798Z,0
2018-08-25T01:28:17.649Z,0
2018-08-25T01:29:27.754Z,0
2018-08-25T01:30:37.051Z,0
2018-08-25T01:31:46.888Z,0
2018-08-25T01:32:56.464Z,0
2018-08-25T01:34:06.036Z,0
2018-08-25T01:35:15.611Z,0
2018-08-25T01:36:25.458Z,0
2018-08-25T01:37:35.634Z,0
2018-08-25T01:38:45.201Z,0
2018-08-25T01:39:55.049Z,0
2018-08-25T01:41:04.616Z,0
2018-08-25T01:42:13.912Z,0
2018-08-25T01:43:23.479Z,0
2018-08-25T01:44:32.775Z,0
2018-08-25T01:45:42.090Z,0
2018-08-25T01:46:51.926Z,0
2018-08-25T01:48:01.770Z,0
2018-08-25T01:49:11.340Z,0
2018-08-25T01:50:20.642Z,0
2018-08-25T01:51:30.755Z,0
2018-08-25T01:52:40.323Z,0
2018-08-25T01:53:50.432Z,0
2018-08-25T01:55:00.275Z,0
2018-08-25T01:56:09.577Z,0
2018-08-25T01:57:19.698Z,0
2018-08-25T01:58:29.543Z,0
2018-08-25T01:59:38.852Z,0
2018-08-25T02:00:48.746Z,0
2018-08-25T02:01:58.045Z,0
2018-08-25T02:03:07.885Z,0
2018-08-25T02:04:17.461Z,0
2018-08-25T02:05:27.023Z,0
2018-08-25T02:06:36.914Z,0
2018-08-25T02:07:47.035Z,0
2018-08-25T02:08:56.337Z,0
2018-08-25T02:10:05.915Z,0
2018-08-25T02:11:15.484Z,0
2018-08-25T02:12:25.070Z,0
2018-08-25T02:13:34.641Z,0
2018-08-25T02:14:44.746Z,0
2018-08-25T02:15:54.586Z,0
2018-08-25T02:17:03.884Z,0
2018-08-25T02:18:13.182Z,0
2018-08-25T02:19:22.486Z,0
2018-08-25T02:20:32.057Z,0
2018-08-25T02:21:42.180Z,0
2018-08-25T02:22:52.030Z,0
2018-08-25T02:24:01.671Z,0
2018-08-25T02:25:11.508Z,0
2018-08-25T02:26:20.274Z,0
2018-08-25T02:27:29.846Z,0
2018-08-25T02:28:39.966Z,0
2018-08-25T02:29:49.550Z,0
2018-08-25T02:30:59.120Z,0
2018-08-25T02:32:08.690Z,0
2018-08-25T02:33:18.258Z,0
2018-08-25T02:34:27.836Z,0
2018-08-25T02:35:37.673Z,0
2018-08-25T02:36:47.514Z,0
2018-08-25T02:37:57.351Z,0
2018-08-25T02:39:07.198Z,0
2018-08-25T02:40:17.039Z,0
2018-08-25T02:41:26.880Z,0
2018-08-25T02:42:36.720Z,0
2018-08-25T02:43:46.833Z,0
2018-08-25T02:44:56.409Z,0
2018-08-25T02:46:06.244Z,0
2018-08-25T02:47:15.814Z,0
2018-08-25T02:48:25.656Z,0
2018-08-25T02:49:35.501Z,0
2018-08-25T02:50:45.356Z,0
2018-08-25T02:51:55.195Z,0
2018-08-25T02:53:05.354Z,0
2018-08-25T02:54:14.921Z,0
2018-08-25T02:55:25.049Z,0
2018-08-25T02:56:35.158Z,0
2018-08-25T02:57:44.470Z,0
2018-08-25T02:58:54.313Z,0
2018-08-25T03:00:04.178Z,0
2018-08-25T03:01:14.020Z,0
2018-08-25T03:02:24.154Z,0
2018-08-25T03:03:34.263Z,0
2018-08-25T03:04:43.561Z,0
2018-08-25T03:05:53.421Z,0
2018-08-25T03:07:02.992Z,0
2018-08-25T03:08:12.556Z,0
2018-08-25T03:09:21.853Z,0
2018-08-25T03:10:31.422Z,0
2018-08-25T03:11:41.265Z,0
2018-08-25T03:12:51.105Z,0
2018-08-25T03:14:01.461Z,0
2018-08-25T03:15:11.302Z,0
2018-08-25T03:16:21.140Z,0
2018-08-25T03:17:30.978Z,0
2018-08-25T03:18:40.562Z,0
2018-08-25T03:19:50.679Z,0
2018-08-25T03:21:00.528Z,0
2018-08-25T03:22:10.379Z,0
2018-08-25T03:23:19.958Z,0
2018-08-25T03:24:29.799Z,0
2018-08-25T03:25:39.640Z,0
2018-08-25T03:26:48.948Z,0
2018-08-25T03:27:58.786Z,0
2018-08-25T03:29:08.364Z,0
2018-08-25T03:30:17.950Z,0
2018-08-25T03:31:27.814Z,0
2018-08-25T03:32:37.387Z,0
2018-08-25T03:33:47.011Z,0
2018-08-25T03:34:56.317Z,0
2018-08-25T03:36:06.156Z,0
2018-08-25T03:37:15.999Z,0
2018-08-25T03:38:25.571Z,0
2018-08-25T03:39:35.729Z,0
2018-08-25T03:40:45.567Z,0
2018-08-25T03:41:55.137Z,0
2018-08-25T03:43:04.977Z,0
2018-08-25T03:44:14.819Z,0
2018-08-25T03:45:24.395Z,0
2018-08-25T03:46:34.239Z,0
2018-08-25T03:47:43.803Z,0
2018-08-25T03:48:53.639Z,0
2018-08-25T03:50:03.216Z,0
2018-08-25T03:51:12.789Z,4
2018-08-25T03:52:22.635Z,4
2018-08-25T03:53:32.484Z,4
2018-08-25T03:54:41.783Z,0
2018-08-25T03:55:51.624Z,4
2018-08-25T03:57:01.479Z,4
2018-08-25T03:58:11.322Z,8
2018-08-25T03:59:21.446Z,4
2018-08-25T04:00:30.756Z,8
2018-08-25T04:01:41.476Z,8
2018-08-25T04:02:51.232Z,12
2018-08-25T04:04:00.811Z,12
2018-08-25T04:05:10.920Z,12
2018-08-25T04:06:21.050Z,16
2018-08-25T04:07:30.612Z,20
2018-08-25T04:08:40.191Z,20
2018-08-25T04:09:49.490Z,24
2018-08-25T04:10:59.333Z,28
2018-08-25T04:12:08.913Z,28
2018-08-25T04:13:19.028Z,36
2018-08-25T04:14:28.868Z,40
2018-08-25T04:15:38.440Z,40
2018-08-25T04:16:48.010Z,44
2018-08-25T04:17:58.120Z,48
2018-08-25T04:19:07.966Z,52
2018-08-25T04:20:17.536Z,60
2018-08-25T04:21:26.571Z,68
2018-08-25T04:22:36.143Z,84
2018-08-25T04:23:45.723Z,96
2018-08-25T04:24:55.024Z,116
2018-08-25T04:26:04.590Z,132
2018-08-25T04:27:14.716Z,148
2018-08-25T04:28:24.286Z,156
2018-08-25T04:29:33.592Z,168
2018-08-25T04:30:43.727Z,176
2018-08-25T04:31:53.563Z,184
2018-08-25T04:33:03.420Z,184
2018-08-25T04:34:13.276Z,188
2018-08-25T04:35:23.123Z,192
2018-08-25T04:36:32.426Z,204
2018-08-25T04:37:41.461Z,220
2018-08-25T04:38:51.030Z,236
2018-08-25T04:40:00.883Z,244
2018-08-25T04:41:11.111Z,240
2018-08-25T04:42:20.549Z,228
2018-08-25T04:43:30.391Z,224
2018-08-25T04:44:40.232Z,220
2018-08-25T04:45:50.071Z,224
2018-08-25T04:46:59.919Z,236
2018-08-25T04:48:09.224Z,260
2018-08-25T04:49:19.061Z,284
2018-08-25T04:50:28.360Z,316
2018-08-25T04:51:37.930Z,360
2018-08-25T04:52:46.969Z,404
2018-08-25T04:53:57.089Z,452
2018-08-25T04:55:06.386Z,488
2018-08-25T04:56:15.963Z,512
2018-08-25T04:57:25.534Z,536
2018-08-25T04:58:35.644Z,552
2018-08-25T04:59:45.222Z,552
2018-08-25T05:00:55.404Z,532
2018-08-25T05:02:06.059Z,512
2018-08-25T05:03:15.915Z,488
2018-08-25T05:04:25.771Z,476
2018-08-25T05:05:35.349Z,464
2018-08-25T05:06:45.190Z,460
2018-08-25T05:07:55.330Z,464
2018-08-25T05:09:04.909Z,468
2018-08-25T05:10:14.491Z,492
2018-08-25T05:11:24.639Z,528
2018-08-25T05:12:34.533Z,584
2018-08-25T05:13:44.159Z,636
2018-08-25T05:14:53.744Z,692
2018-08-25T05:16:03.598Z,760
2018-08-25T05:17:12.908Z,828
2018-08-25T05:18:21.937Z,884
2018-08-25T05:19:30.969Z,924
2018-08-25T05:20:41.075Z,932
2018-08-25T05:21:51.311Z,908
2018-08-25T05:23:01.561Z,876
2018-08-25T05:24:11.403Z,836
2018-08-25T05:25:20.971Z,796
2018-08-25T05:26:31.078Z,784
2018-08-25T05:27:40.656Z,808
2018-08-25T05:28:50.508Z,872
2018-08-25T05:30:00.621Z,960
2018-08-25T05:31:10.751Z,1044
2018-08-25T05:32:20.869Z,1120
2018-08-25T05:33:30.712Z,1192
2018-08-25T05:34:40.557Z,1256
2018-08-25T05:35:50.131Z,1340
2018-08-25T05:37:00.244Z,1436
2018-08-25T05:38:10.355Z,1456
2018-08-25T05:39:20.203Z,1280
2018-08-25T05:40:29.511Z,1072
2018-08-25T05:41:39.127Z,760
2018-08-25T05:42:48.983Z,532
2018-08-25T05:43:58.819Z,616
2018-08-25T05:45:08.979Z,676
2018-08-25T05:46:18.556Z,504
2018-08-25T05:47:28.402Z,552
2018-08-25T05:48:37.702Z,704
2018-08-25T05:49:47.271Z,944
2018-08-25T05:50:56.845Z,1152
2018-08-25T05:52:06.711Z,1116
2018-08-25T05:53:16.266Z,1004
2018-08-25T05:54:26.380Z,928
2018-08-25T05:55:35.408Z,780
2018-08-25T05:56:44.704Z,1044
2018-08-25T05:57:54.966Z,1164
2018-08-25T05:59:04.536Z,1144
2018-08-25T06:00:14.106Z,1056
2018-08-25T06:01:23.684Z,856
2018-08-25T06:02:33.524Z,648
2018-08-25T06:03:43.368Z,812
2018-08-25T06:04:52.993Z,1052
2018-08-25T06:06:02.569Z,1176
2018-08-25T06:07:12.138Z,1184
2018-08-25T06:08:21.980Z,1208
2018-08-25T06:09:31.822Z,1236
2018-08-25T06:10:41.672Z,1152
2018-08-25T06:11:51.533Z,1172
2018-08-25T06:13:01.647Z,1392
2018-08-25T06:14:11.220Z,1584
2018-08-25T06:15:20.527Z,1644
2018-08-25T06:16:30.650Z,1748
2018-08-25T06:17:40.431Z,1884
2018-08-25T06:18:50.453Z,2000
2018-08-25T06:20:00.300Z,2032
2018-08-25T06:21:10.149Z,1996
2018-08-25T06:22:19.718Z,1932
2018-08-25T06:23:29.562Z,1920
2018-08-25T06:24:39.407Z,1968
2018-08-25T06:25:49.516Z,2020
2018-08-25T06:26:59.635Z,2032
2018-08-25T06:28:08.673Z,1912
2018-08-25T06:29:18.781Z,1712
2018-08-25T06:30:28.973Z,1492
2018-08-25T06:31:38.816Z,1408
2018-08-25T06:32:48.665Z,1476
2018-08-25T06:33:58.567Z,1560
2018-08-25T06:35:07.871Z,1664
2018-08-25T06:36:18.162Z,1900
2018-08-25T06:37:27.201Z,2240
2018-08-25T06:38:36.785Z,2756
2018-08-25T06:39:46.954Z,3200
2018-08-25T06:40:57.068Z,3284
2018-08-25T06:42:06.923Z,3204
2018-08-25T06:43:17.044Z,3212
2018-08-25T06:44:27.177Z,3444
2018-08-25T06:45:36.747Z,3936
2018-08-25T06:46:46.046Z,4496
2018-08-25T06:47:55.906Z,4700
2018-08-25T06:49:05.750Z,4376
2018-08-25T06:50:15.590Z,3692
2018-08-25T06:51:24.898Z,3156
2018-08-25T06:52:34.747Z,3052
2018-08-25T06:53:44.600Z,2776
2018-08-25T06:54:54.179Z,2276
2018-08-25T06:56:03.748Z,2200
2018-08-25T06:57:13.602Z,2256
2018-08-25T06:58:23.436Z,2768
2018-08-25T06:59:33.928Z,2732
2018-08-25T07:00:43.710Z,2612
2018-08-25T07:01:53.548Z,3100
2018-08-25T07:03:03.390Z,3360
2018-08-25T07:04:13.501Z,4728
2018-08-25T07:05:23.071Z,5300
2018-08-25T07:06:32.652Z,4648
2018-08-25T07:07:42.765Z,4372
2018-08-25T07:08:52.396Z,4600
2018-08-25T07:10:02.242Z,5556
2018-08-25T07:11:11.815Z,5996
2018-08-25T07:12:21.657Z,6072
2018-08-25T07:13:31.765Z,5924
2018-08-25T07:14:41.894Z,5264
2018-08-25T07:15:51.468Z,3984
2018-08-25T07:17:00.768Z,3004
2018-08-25T07:18:10.345Z,2356
2018-08-25T07:19:19.921Z,1812
2018-08-25T07:20:30.092Z,1660
2018-08-25T07:21:40.201Z,1516
2018-08-25T07:22:50.054Z,1756
2018-08-25T07:24:00.169Z,2228
2018-08-25T07:25:10.027Z,2692
2018-08-25T07:26:20.365Z,3168
2018-08-25T07:27:30.451Z,3904
2018-08-25T07:28:40.292Z,3260
2018-08-25T07:29:50.134Z,2836
2018-08-25T07:30:59.708Z,3276
2018-08-25T07:32:09.875Z,4136
2018-08-25T07:33:20.151Z,3568
2018-08-25T07:34:29.721Z,2892
2018-08-25T07:35:39.886Z,2828
2018-08-25T07:36:49.732Z,3944
2018-08-25T07:37:59.573Z,4508
2018-08-25T07:39:09.421Z,3676
2018-08-25T07:40:19.277Z,2492
2018-08-25T07:41:29.129Z,2028
2018-08-25T07:42:38.163Z,1620
2018-08-25T07:43:47.735Z,1448
2018-08-25T07:44:57.594Z,1532
2018-08-25T07:46:07.169Z,1784
2018-08-25T07:47:16.740Z,2068
2018-08-25T07:48:26.361Z,2188
2018-08-25T07:49:36.543Z,2756
2018-08-25T07:50:46.406Z,2764
2018-08-25T07:51:56.616Z,2708
2018-08-25T07:53:06.472Z,3184
2018-08-25T07:54:16.048Z,2572
2018-08-25T07:55:25.619Z,1856
2018-08-25T07:56:35.741Z,1276
2018-08-25T07:57:45.585Z,1368
2018-08-25T07:58:55.156Z,1644
2018-08-25T08:00:05.000Z,1756
2018-08-25T08:01:14.855Z,2168
2018-08-25T08:02:24.429Z,2356
2018-08-25T08:03:34.277Z,1880
2018-08-25T08:04:44.242Z,1756
2018-08-25T08:05:53.862Z,1720
2018-08-25T08:07:03.479Z,1528
2018-08-25T08:08:13.327Z,1424
2018-08-25T08:09:23.448Z,1416
2018-08-25T08:10:32.752Z,1436
2018-08-25T08:11:42.083Z,1820
2018-08-25T08:12:52.222Z,1720
2018-08-25T08:14:01.797Z,1348
2018-08-25T08:15:11.375Z,1320
2018-08-25T08:16:20.955Z,1204
2018-08-25T08:17:31.068Z,1052
2018-08-25T08:18:40.146Z,1000
2018-08-25T08:19:49.713Z,1028
2018-08-25T08:20:59.820Z,1076
2018-08-25T08:22:09.398Z,1240
2018-08-25T08:23:19.248Z,1720
2018-08-25T08:24:29.150Z,1876
2018-08-25T08:25:39.001Z,2472
2018-08-25T08:26:48.043Z,1648
2018-08-25T08:27:57.351Z,1736
2018-08-25T08:29:07.480Z,1684
2018-08-25T08:30:17.331Z,1320
2018-08-25T08:31:26.909Z,1420
2018-08-25T08:32:36.484Z,1372
2018-08-25T08:33:45.783Z,1388
2018-08-25T08:34:55.084Z,1672
2018-08-25T08:36:04.385Z,3916
2018-08-25T08:37:13.961Z,4424
2018-08-25T08:38:23.532Z,3756
2018-08-25T08:39:33.560Z,2788
2018-08-25T08:40:43.230Z,1828
2018-08-25T08:41:53.345Z,1196
2018-08-25T08:43:03.185Z,1560
2018-08-25T08:44:13.035Z,2616
2018-08-25T08:45:22.729Z,3364
2018-08-25T08:46:32.416Z,4684
2018-08-25T08:47:42.841Z,6932
2018-08-25T08:48:52.699Z,8336
2018-08-25T08:50:02.368Z,9496
2018-08-25T08:51:11.376Z,10320
2018-08-25T08:52:20.677Z,12064
2018-08-25T08:53:30.515Z,14040
2018-08-25T08:54:40.090Z,14552
2018-08-25T08:55:49.937Z,12908
2018-08-25T08:56:59.787Z,9948
2018-08-25T08:58:09.123Z,7432
2018-08-25T08:59:18.706Z,6384
2018-08-25T09:00:28.552Z,6708
2018-08-25T09:01:38.130Z,7992
2018-08-25T09:02:47.428Z,7284
2018-08-25T09:03:57.002Z,7876
2018-08-25T09:05:06.305Z,8096
2018-08-25T09:06:16.151Z,8268
2018-08-25T09:07:26.271Z,7500
2018-08-25T09:08:36.119Z,6420
2018-08-25T09:09:45.960Z,4956
2018-08-25T09:10:55.604Z,3696
2018-08-25T09:12:05.455Z,3136
2018-08-25T09:13:15.310Z,3976
2018-08-25T09:14:24.607Z,4372
2018-08-25T09:15:34.186Z,4520
2018-08-25T09:16:43.486Z,4172
2018-08-25T09:17:52.792Z,3496
2018-08-25T09:19:02.096Z,2812
2018-08-25T09:20:11.668Z,2592
2018-08-25T09:21:21.238Z,1988
2018-08-25T09:22:30.805Z,1172
2018-08-25T09:23:40.099Z,752
2018-08-25T09:24:49.683Z,688
2018-08-25T09:25:59.526Z,684
2018-08-25T09:27:09.369Z,716
2018-08-25T09:28:19.514Z,1000
2018-08-25T09:29:28.810Z,1172
2018-08-25T09:30:38.390Z,1040
2018-08-25T09:31:47.418Z,748
2018-08-25T09:32:57.260Z,920
2018-08-25T09:34:07.107Z,1100
2018-08-25T09:35:16.947Z,1812
2018-08-25T09:36:27.795Z,2124
2018-08-25T09:37:37.976Z,2052
2018-08-25T09:38:47.818Z,1916
2018-08-25T09:39:57.713Z,1988
2018-08-25T09:41:07.282Z,2152
2018-08-25T09:42:17.121Z,2504
2018-08-25T09:43:26.965Z,2848
2018-08-25T09:44:36.533Z,3276
2018-08-25T09:45:46.161Z,3616
2018-08-25T09:46:56.474Z,4028
2018-08-25T09:48:06.451Z,4320
2018-08-25T09:49:16.583Z,4432
2018-08-25T09:50:26.430Z,4600
2018-08-25T09:51:36.287Z,4612
2018-08-25T09:52:45.854Z,4584
2018-08-25T09:53:55.970Z,4284
2018-08-25T09:55:05.544Z,4120
2018-08-25T09:56:15.667Z,3880
2018-08-25T09:57:25.243Z,3652
2018-08-25T09:58:34.824Z,3720
2018-08-25T09:59:44.392Z,3688
2018-08-25T10:00:54.240Z,3840
2018-08-25T10:02:03.529Z,3992
2018-08-25T10:03:12.827Z,4156
2018-08-25T10:04:22.409Z,3848
2018-08-25T10:05:32.528Z,3420
2018-08-25T10:06:42.369Z,3276
2018-08-25T10:07:52.216Z,3400
2018-08-25T10:09:01.778Z,3276
2018-08-25T10:10:11.093Z,3652
2018-08-25T10:11:21.206Z,6672
2018-08-25T10:12:31.043Z,11588
2018-08-25T10:13:40.348Z,14236
2018-08-25T10:14:49.648Z,14912
2018-08-25T10:15:59.225Z,16176
2018-08-25T10:17:09.065Z,16928
2018-08-25T10:18:18.903Z,14500
2018-08-25T10:19:28.469Z,14704
2018-08-25T10:20:38.311Z,11856
2018-08-25T10:21:48.156Z,12200
2018-08-25T10:22:57.510Z,12160
2018-08-25T10:24:06.507Z,12744
2018-08-25T10:25:16.406Z,11744
2018-08-25T10:26:25.977Z,13596
2018-08-25T10:27:35.815Z,13488
2018-08-25T10:28:46.074Z,15636
2018-08-25T10:29:55.383Z,17248
2018-08-25T10:31:04.684Z,15124
2018-08-25T10:32:14.267Z,14824
2018-08-25T10:33:24.113Z,13764
2018-08-25T10:34:33.694Z,12920
2018-08-25T10:35:44.033Z,12008
2018-08-25T10:36:54.036Z,11380
2018-08-25T10:38:03.621Z,10160
2018-08-25T10:39:13.470Z,11996
2018-08-25T10:40:23.569Z,16228
2018-08-25T10:41:32.971Z,14676
2018-08-25T10:42:42.573Z,14304
2018-08-25T10:43:52.150Z,13156
2018-08-25T10:45:01.455Z,14600
2018-08-25T10:46:11.294Z,18368
2018-08-25T10:47:20.871Z,18592
2018-08-25T10:48:30.440Z,17408
2018-08-25T10:49:40.284Z,13936
2018-08-25T10:50:50.134Z,13656
2018-08-25T10:51:59.711Z,15260
2018-08-25T10:53:09.561Z,14076
2018-08-25T10:54:19.435Z,20000
2018-08-25T10:55:29.551Z,23552
2018-08-25T10:56:39.124Z,15160
2018-08-25T10:57:48.479Z,9656
2018-08-25T10:58:58.317Z,10908
2018-08-25T11:00:08.865Z,13184
2018-08-25T11:01:18.576Z,10956
2018-08-25T11:02:28.793Z,7360
2018-08-25T11:03:38.158Z,8504
2018-08-25T11:04:48.011Z,15504
2018-08-25T11:05:58.130Z,14300
2018-08-25T11:07:08.245Z,14916
2018-08-25T11:08:17.548Z,16404
2018-08-25T11:09:26.852Z,16408
2018-08-25T11:10:36.159Z,17856
2018-08-25T11:11:45.752Z,16576
2018-08-25T11:12:55.864Z,16960
2018-08-25T11:14:05.439Z,15956
2018-08-25T11:15:14.476Z,14640
2018-08-25T11:16:24.501Z,15940
2018-08-25T11:17:34.034Z,16672
2018-08-25T11:18:43.884Z,12704
2018-08-25T11:19:53.994Z,11392
2018-08-25T11:21:03.565Z,10596
2018-08-25T11:22:12.872Z,15344
2018-08-25T11:23:22.719Z,15168
2018-08-25T11:24:32.290Z,14580
2018-08-25T11:25:42.399Z,8572
2018-08-25T11:26:51.972Z,8252
2018-08-25T11:28:01.591Z,12792
2018-08-25T11:29:11.607Z,14924
2018-08-25T11:30:21.272Z,14804
2018-08-25T11:31:31.387Z,15060
2018-08-25T11:32:41.265Z,17312
2018-08-25T11:33:51.115Z,16264
2018-08-25T11:35:00.951Z,16388
2018-08-25T11:36:10.839Z,16244
2018-08-25T11:37:20.780Z,14320
2018-08-25T11:38:31.035Z,13872
2018-08-25T11:39:40.346Z,11564
2018-08-25T11:40:50.194Z,9928
2018-08-25T11:42:00.310Z,8912
2018-08-25T11:43:10.148Z,15132
2018-08-25T11:44:19.729Z,14412
2018-08-25T11:45:29.312Z,16372
2018-08-25T11:46:39.163Z,15612
2018-08-25T11:47:49.278Z,15568
2018-08-25T11:48:59.122Z,16500
2018-08-25T11:50:08.975Z,17440
2018-08-25T11:51:18.544Z,18784
2018-08-25T11:52:27.849Z,20512
2018-08-25T11:53:37.151Z,21376
2018-08-25T11:54:46.735Z,22592
2018-08-25T11:55:56.593Z,21472
2018-08-25T11:57:06.723Z,18016
2018-08-25T11:58:16.295Z,15124
2018-08-25T11:59:26.411Z,69344
2018-08-25T12:00:35.718Z,78752
2018-08-25T12:01:45.302Z,89056
2018-08-25T12:02:55.159Z,69728
2018-08-25T12:04:05.021Z,53024
2018-08-25T12:05:14.322Z,59616
2018-08-25T12:06:23.894Z,14220
2018-08-25T12:07:33.474Z,10020
2018-08-25T12:08:42.774Z,6416
2018-08-25T12:09:52.083Z,5116
2018-08-25T12:11:01.667Z,4524
2018-08-25T12:12:11.242Z,4080
2018-08-25T12:13:21.413Z,5200
2018-08-25T12:14:30.990Z,9972
2018-08-25T12:15:40.568Z,15272
2018-08-25T12:16:50.145Z,25952
2018-08-25T12:17:59.187Z,23744
2018-08-25T12:19:09.046Z,35072
2018-08-25T12:20:18.888Z,21920
2018-08-25T12:21:28.199Z,17920
2018-08-25T12:22:38.314Z,15832
2018-08-25T12:23:47.890Z,16268
2018-08-25T12:24:57.744Z,16736
2018-08-25T12:26:07.863Z,20064
2018-08-25T12:27:17.448Z,20064
2018-08-25T12:28:27.081Z,19232
2018-08-25T12:29:36.649Z,18272
2018-08-25T12:30:46.979Z,16928
2018-08-25T12:31:56.823Z,16068
2018-08-25T12:33:06.674Z,16288
2018-08-25T12:34:16.791Z,16392
2018-08-25T12:35:26.646Z,16516
2018-08-25T12:36:36.493Z,16328
2018-08-25T12:37:46.353Z,18848
2018-08-25T12:38:56.234Z,16928
2018-08-25T12:40:05.531Z,16036
2018-08-25T12:41:15.656Z,19264
2018-08-25T12:42:25.501Z,15972
2018-08-25T12:43:35.285Z,21664
2018-08-25T12:44:45.388Z,25504
2018-08-25T12:45:55.229Z,45504
2018-08-25T12:47:04.533Z,13928
2018-08-25T12:48:14.376Z,9492
2018-08-25T12:49:24.229Z,9192
2018-08-25T12:50:34.074Z,8232
2018-08-25T12:51:44.172Z,7772
2018-08-25T12:52:53.605Z,8848
2018-08-25T12:54:03.450Z,10360
2018-08-25T12:55:13.116Z,12536
2018-08-25T12:56:22.666Z,11476
2018-08-25T12:57:32.777Z,12404
2018-08-25T12:58:42.361Z,34656
2018-08-25T12:59:51.950Z,46272
2018-08-25T13:01:01.528Z,41152
2018-08-25T13:02:10.834Z,26112
2018-08-25T13:03:20.672Z,14876
2018-08-25T13:04:30.257Z,11060
2018-08-25T13:05:40.103Z,8352
2018-08-25T13:06:49.412Z,5876
2018-08-25T13:07:58.987Z,5804
2018-08-25T13:09:08.833Z,9088
2018-08-25T13:10:18.411Z,13052
2018-08-25T13:11:27.722Z,11780
2018-08-25T13:12:37.832Z,15404
2018-08-25T13:13:47.672Z,14980
2018-08-25T13:14:57.253Z,14364
2018-08-25T13:16:07.102Z,12076
2018-08-25T13:17:17.005Z,11172
2018-08-25T13:18:26.037Z,10932
2018-08-25T13:19:35.888Z,10648
2018-08-25T13:20:45.731Z,10332
2018-08-25T13:21:56.103Z,8024
2018-08-25T13:23:04.844Z,6736
2018-08-25T13:24:14.151Z,5712
2018-08-25T13:25:24.283Z,4652
2018-08-25T13:26:34.129Z,3252
2018-08-25T13:27:43.974Z,2104
2018-08-25T13:28:53.824Z,1372
2018-08-25T13:30:03.665Z,1448
2018-08-25T13:31:14.351Z,2560
2018-08-25T13:32:24.300Z,2736
2018-08-25T13:33:33.617Z,3248
2018-08-25T13:34:43.189Z,2220
2018-08-25T13:35:52.768Z,3096
2018-08-25T13:37:02.609Z,2164
2018-08-25T13:38:13.073Z,2176
2018-08-25T13:39:22.799Z,2076
2018-08-25T13:40:32.661Z,1336
2018-08-25T13:41:41.960Z,1196
2018-08-25T13:42:51.261Z,1232
2018-08-25T13:44:00.832Z,1552
2018-08-25T13:45:10.957Z,2556
2018-08-25T13:46:20.814Z,2812
2018-08-25T13:47:30.921Z,3608
2018-08-25T13:48:41.041Z,5464
2018-08-25T13:49:51.152Z,7524
2018-08-25T13:51:00.958Z,8140
2018-08-25T13:52:10.972Z,9176
2018-08-25T13:53:20.817Z,11292
2018-08-25T13:54:30.395Z,14768
2018-08-25T13:55:40.518Z,19264
2018-08-25T13:56:50.410Z,20800
2018-08-25T13:58:00.253Z,23136
2018-08-25T13:59:09.552Z,26592
2018-08-25T14:00:19.397Z,29184
2018-08-25T14:01:28.973Z,34304
2018-08-25T14:02:38.813Z,56864
2018-08-25T14:03:48.651Z,52768
2018-08-25T14:04:58.509Z,40576
2018-08-25T14:06:08.362Z,55872
2018-08-25T14:07:18.218Z,62880
2018-08-25T14:08:29.216Z,50048
2018-08-25T14:09:38.899Z,53600
2018-08-25T14:10:48.483Z,44224
2018-08-25T14:11:58.329Z,61984
2018-08-25T14:13:08.437Z,89824
2018-08-25T14:14:17.740Z,88864
2018-08-25T14:15:27.315Z,85152
2018-08-25T14:16:36.746Z,82336
2018-08-25T14:17:46.058Z,84704
2018-08-25T14:18:55.367Z,83232
2018-08-25T14:20:04.947Z,89728
2018-08-25T14:21:14.795Z,90720
2018-08-25T14:22:24.378Z,99200
2018-08-25T14:23:34.236Z,90368
2018-08-25T14:24:44.370Z,83264
2018-08-25T14:25:54.216Z,81376
2018-08-25T14:27:04.344Z,45536
2018-08-25T14:28:14.471Z,40704
2018-08-25T14:29:24.052Z,37312
2018-08-25T14:30:33.903Z,24768
2018-08-25T14:31:43.816Z,17152
2018-08-25T14:32:53.131Z,16512
2018-08-25T14:34:02.977Z,17024
2018-08-25T14:35:13.101Z,20928
2018-08-25T14:36:22.944Z,21760
2018-08-25T14:37:32.474Z,20256
2018-08-25T14:38:42.317Z,20736
2018-08-25T14:39:52.488Z,18816
2018-08-25T14:41:01.834Z,19488
2018-08-25T14:42:11.440Z,19488
2018-08-25T14:43:21.346Z,32064
2018-08-25T14:44:30.929Z,44832
2018-08-25T14:45:40.778Z,36736
2018-08-25T14:46:50.361Z,35328
2018-08-25T14:48:00.482Z,21728
2018-08-25T14:49:10.073Z,16448
2018-08-25T14:50:19.651Z,13908
2018-08-25T14:51:29.236Z,11808
2018-08-25T14:52:38.816Z,11288
2018-08-25T14:53:48.934Z,11084
2018-08-25T14:54:58.241Z,11104
2018-08-25T14:56:08.081Z,11164
2018-08-25T14:57:17.927Z,11184
2018-08-25T14:58:27.770Z,11380
2018-08-25T14:59:37.342Z,11972
2018-08-25T15:00:47.064Z,14236
2018-08-25T15:01:57.112Z,13844
2018-08-25T15:03:06.691Z,18688
2018-08-25T15:04:16.538Z,63200
2018-08-25T15:05:26.388Z,82848
2018-08-25T15:06:35.967Z,79040
2018-08-25T15:07:45.821Z,80640
2018-08-25T15:08:55.735Z,88032
2018-08-25T15:10:04.772Z,85376
2018-08-25T15:11:14.623Z,85984
2018-08-25T15:12:24.528Z,86848
2018-08-25T15:13:34.565Z,86208
2018-08-25T15:14:44.419Z,86112
2018-08-25T15:15:54.005Z,84288
2018-08-25T15:17:03.859Z,82560
2018-08-25T15:18:13.711Z,83648
2018-08-25T15:19:23.564Z,83840
2018-08-25T15:20:32.908Z,83712
2018-08-25T15:21:42.769Z,79072
2018-08-25T15:22:52.082Z,76160
2018-08-25T15:24:01.123Z,57632
2018-08-25T15:25:10.704Z,36352
2018-08-25T15:26:20.830Z,12016
2018-08-25T15:27:30.893Z,8884
2018-08-25T15:28:40.484Z,8044
2018-08-25T15:29:50.342Z,7860
2018-08-25T15:31:00.456Z,8308
2018-08-25T15:32:10.372Z,7644
2018-08-25T15:33:20.495Z,7768
2018-08-25T15:34:30.347Z,8000
2018-08-25T15:35:40.209Z,8280
2018-08-25T15:36:50.353Z,8676
2018-08-25T15:37:59.993Z,9092
2018-08-25T15:39:09.571Z,9400
2018-08-25T15:40:18.883Z,9456
2018-08-25T15:41:28.732Z,9384
2018-08-25T15:42:38.578Z,9296
2018-08-25T15:43:47.890Z,9404
2018-08-25T15:44:57.467Z,9824
2018-08-25T15:46:07.581Z,10668
2018-08-25T15:47:17.163Z,11704
2018-08-25T15:48:27.280Z,14208